Time;durP1;ratioP1;P1;durP2;ratioP2;P2;SDS_P1;SDS_P2;PMS_P1;PMS_P2;Temp;Humidity;BMP_temperature;BMP_pressure;BME280_temperature;BME280_humidity;BME280_pressure;Samples;Min_cycle;Max_cycle;Signal;HPM_P1;HPM_P2
2023/02/28 00:00:39;;;;;;;5.53;3.83;;;;;-1.00;102409.00;;;;9869394;30;20203;-80
2023/02/28 00:05:41;;;;;;;8.07;4.07;;;;;-1.00;102412.00;;;;9850997;30;20192;-78
2023/02/28 00:10:43;;;;;;;10.20;3.80;;;;;-1.10;102410.00;;;;9878410;30;20259;-78
2023/02/28 00:15:45;;;;;;;5.30;4.27;;;;;-1.10;102417.00;;;;9888205;30;20203;-78
2023/02/28 00:20:47;;;;;;;7.73;4.30;;;;;-1.10;102414.00;;;;9887261;29;20211;-78
2023/02/28 00:25:50;;;;;;;11.23;4.10;;;;;-1.10;102416.00;;;;9932103;29;20203;-78
2023/02/28 00:30:52;;;;;;;5.43;4.07;;;;;-1.20;102415.00;;;;9895457;29;20215;-78
2023/02/28 00:36:03;;;;;;;7.57;3.93;;;;;-1.20;102416.00;;;;9882055;29;20212;-78
2023/02/28 00:41:07;;;;;;;12.40;4.63;;;;;-1.20;102414.00;;;;9886712;30;20211;-78
2023/02/28 00:46:09;;;;;;;5.87;4.27;;;;;-1.30;102419.00;;;;9887205;30;20192;-78
2023/02/28 00:51:11;;;;;;;5.17;4.07;;;;;-1.30;102416.00;;;;9889566;29;20246;-78
2023/02/28 00:56:13;;;;;;;6.50;5.17;;;;;-1.40;102423.00;;;;9926168;29;20207;-79
2023/02/28 01:01:15;;;;;;;5.30;4.80;;;;;-1.50;102420.00;;;;9894169;29;20206;-79
2023/02/28 01:06:18;;;;;;;8.43;4.53;;;;;-1.60;102430.00;;;;9893919;29;20743;-78
2023/02/28 01:11:20;;;;;;;7.70;3.83;;;;;-1.90;102427.00;;;;9908141;29;20226;-78
2023/02/28 01:16:23;;;;;;;10.10;4.60;;;;;-2.00;102427.00;;;;9894127;29;20278;-78
2023/02/28 01:21:24;;;;;;;8.97;4.67;;;;;-2.20;102444.00;;;;9908282;29;20303;-78
2023/02/28 01:26:26;;;;;;;9.57;4.63;;;;;-2.30;102433.00;;;;9915867;29;20218;-78
2023/02/28 01:31:28;;;;;;;7.73;4.97;;;;;-2.30;102436.00;;;;9857821;29;20220;-80
2023/02/28 01:36:31;;;;;;;11.00;4.80;;;;;-2.30;102432.00;;;;9893376;30;20235;-80
2023/02/28 01:41:34;;;;;;;7.80;5.33;;;;;-2.20;102432.00;;;;9863388;30;20568;-80
2023/02/28 01:46:36;;;;;;;11.03;4.73;;;;;-2.20;102430.00;;;;9878339;30;20431;-79
2023/02/28 01:51:50;;;;;;;10.33;5.50;;;;;-2.10;102428.00;;;;9913520;29;20219;-78
2023/02/28 01:56:57;;;;;;;10.00;5.63;;;;;-2.10;102426.00;;;;9944332;29;20253;-79
2023/02/28 02:02:00;;;;;;;14.37;5.90;;;;;-2.00;102407.00;;;;9877440;30;20246;-78
2023/02/28 02:07:03;;;;;;;8.70;5.37;;;;;-2.00;102412.00;;;;9877684;29;20251;-78
2023/02/28 02:12:28;;;;;;;8.73;5.90;;;;;-2.00;102407.00;;;;9877558;30;20318;-79
2023/02/28 02:17:39;;;;;;;8.13;4.83;;;;;-2.10;102402.00;;;;9892191;30;20210;-79
2023/02/28 02:22:56;;;;;;;8.13;5.83;;;;;-2.10;102400.00;;;;9862406;30;20192;-79
2023/02/28 02:28:11;;;;;;;7.57;5.47;;;;;-2.10;102402.00;;;;9895257;29;20210;-79
2023/02/28 02:33:37;;;;;;;11.50;6.63;;;;;-2.20;102393.00;;;;9913675;29;20297;-79
2023/02/28 02:38:48;;;;;;;8.37;5.73;;;;;-2.30;102404.00;;;;9902820;29;20723;-80
2023/02/28 02:44:03;;;;;;;9.90;6.13;;;;;-2.50;102391.00;;;;9875361;29;21015;-79
2023/02/28 02:49:10;;;;;;;10.33;6.23;;;;;-2.60;102392.00;;;;9882534;29;20203;-80
2023/02/28 02:54:17;;;;;;;11.27;6.43;;;;;-2.60;102394.00;;;;9929681;29;20301;-79
2023/02/28 02:59:23;;;;;;;12.03;7.07;;;;;-2.70;102383.00;;;;9920890;29;20236;-79
2023/02/28 03:04:30;;;;;;;9.93;5.97;;;;;-2.70;102388.00;;;;9897375;29;20207;-79
2023/02/28 03:09:34;;;;;;;7.33;5.77;;;;;-2.70;102389.00;;;;9855987;30;20244;-79
2023/02/28 03:15:04;;;;;;;8.20;5.40;;;;;-2.80;102397.00;;;;9867910;30;20201;-80
2023/02/28 03:20:26;;;;;;;8.10;5.73;;;;;-2.90;102392.00;;;;9837691;30;20185;-79
2023/02/28 03:25:42;;;;;;;10.97;5.90;;;;;-3.10;102382.00;;;;9853435;30;20200;-79
2023/02/28 03:30:53;;;;;;;8.17;6.10;;;;;-3.20;102389.00;;;;9838017;30;20235;-79
2023/02/28 03:36:07;;;;;;;11.67;6.10;;;;;-3.20;102386.00;;;;9838308;30;20275;-79
2023/02/28 03:41:29;;;;;;;8.80;5.57;;;;;-3.30;102390.00;;;;9822786;30;20212;-79
2023/02/28 03:46:37;;;;;;;10.73;6.00;;;;;-3.40;102398.00;;;;9823187;30;20200;-79
2023/02/28 03:51:41;;;;;;;14.13;6.20;;;;;-3.40;102408.00;;;;9851528;30;20225;-79
2023/02/28 03:57:05;;;;;;;10.73;6.20;;;;;-3.50;102411.00;;;;9911607;29;20283;-79
2023/02/28 04:02:07;;;;;;;7.30;5.60;;;;;-3.50;102406.00;;;;9835945;30;20223;-80
2023/02/28 04:07:11;;;;;;;10.40;5.97;;;;;-3.50;102400.00;;;;9835964;30;20274;-79
2023/02/28 04:12:13;;;;;;;14.67;6.43;;;;;-3.50;102401.00;;;;9821774;30;20689;-79
2023/02/28 04:17:15;;;;;;;9.90;6.27;;;;;-3.40;102400.00;;;;9851577;30;20703;-79
2023/02/28 04:22:17;;;;;;;13.90;7.50;;;;;-3.30;102397.00;;;;9872891;30;20208;-80
2023/02/28 04:27:21;;;;;;;10.77;6.40;;;;;-3.20;102401.00;;;;9857845;30;20619;-79
2023/02/28 04:32:23;;;;;;;14.70;7.30;;;;;-3.10;102397.00;;;;9872464;30;20580;-79
2023/02/28 04:37:28;;;;;;;10.30;6.80;;;;;-3.00;102402.00;;;;9872258;30;20208;-79
2023/02/28 04:42:35;;;;;;;13.93;8.37;;;;;-3.00;102409.00;;;;9871873;30;20215;-80
2023/02/28 04:47:37;;;;;;;10.20;6.73;;;;;-2.90;102415.00;;;;9837189;30;20208;-79
2023/02/28 04:52:39;;;;;;;18.43;7.67;;;;;-2.70;102419.00;;;;9836361;29;20780;-79
2023/02/28 04:57:42;;;;;;;10.97;6.37;;;;;-2.60;102422.00;;;;9865514;30;20263;-79
2023/02/28 05:02:44;;;;;;;9.90;6.63;;;;;-2.50;102428.00;;;;9834790;30;20858;-80
2023/02/28 05:07:45;;;;;;;9.90;6.70;;;;;-2.30;102425.00;;;;9849665;30;20240;-80
2023/02/28 05:12:47;;;;;;;11.83;7.50;;;;;-2.10;102420.00;;;;9886206;30;20212;-80
2023/02/28 05:17:49;;;;;;;12.40;7.00;;;;;-1.90;102429.00;;;;9901256;30;20196;-79
2023/02/28 05:22:52;;;;;;;11.07;7.43;;;;;-1.80;102419.00;;;;9869488;30;20223;-79
2023/02/28 05:27:54;;;;;;;12.73;7.47;;;;;-1.60;102423.00;;;;9851015;30;20263;-79
2023/02/28 05:32:56;;;;;;;12.00;8.00;;;;;-1.60;102426.00;;;;9848649;30;20209;-79
2023/02/28 05:37:58;;;;;;;9.73;7.50;;;;;-1.50;102428.00;;;;9834357;30;20196;-79
2023/02/28 05:43:00;;;;;;;9.63;7.53;;;;;-1.50;102435.00;;;;9819627;30;20197;-80
2023/02/28 05:48:02;;;;;;;15.37;7.73;;;;;-1.50;102435.00;;;;9834009;30;20208;-80
2023/02/28 05:53:04;;;;;;;12.10;7.53;;;;;-1.50;102427.00;;;;9859704;29;20675;-79
2023/02/28 05:58:06;;;;;;;14.53;8.03;;;;;-1.40;102440.00;;;;9887546;29;20216;-79
2023/02/28 06:03:08;;;;;;;14.53;7.80;;;;;-1.40;102436.00;;;;9870832;30;20172;-79
2023/02/28 06:08:10;;;;;;;13.63;7.03;;;;;-1.20;102440.00;;;;9855517;29;20239;-79
2023/02/28 06:13:12;;;;;;;14.47;7.53;;;;;-1.20;102444.00;;;;9885400;30;20627;-80
2023/02/28 06:18:14;;;;;;;17.20;8.33;;;;;-1.10;102445.00;;;;9870686;29;20236;-79
2023/02/28 06:23:16;;;;;;;15.83;8.43;;;;;-1.10;102452.00;;;;9906594;30;20192;-79
2023/02/28 06:28:19;;;;;;;13.70;8.30;;;;;-1.00;102457.00;;;;9855333;30;20213;-79
2023/02/28 06:33:21;;;;;;;14.90;7.70;;;;;-0.80;102457.00;;;;9839483;30;20287;-79
2023/02/28 06:38:23;;;;;;;13.60;7.57;;;;;-0.70;102455.00;;;;9854875;30;20197;-79
2023/02/28 06:43:28;;;;;;;14.53;7.73;;;;;-0.60;102455.00;;;;9825951;30;20200;-79
2023/02/28 06:48:30;;;;;;;13.03;7.87;;;;;-0.50;102454.00;;;;9875680;30;20244;-79
2023/02/28 06:53:33;;;;;;;9.60;7.23;;;;;-0.30;102473.00;;;;9854091;30;20693;-79
2023/02/28 06:58:35;;;;;;;13.33;7.37;;;;;-0.10;102463.00;;;;9882404;30;20203;-80
2023/02/28 07:03:37;;;;;;;12.53;7.97;;;;;0.20;102471.00;;;;9875778;30;20203;-79
2023/02/28 07:08:40;;;;;;;14.30;7.27;;;;;0.40;102467.00;;;;9875588;29;20251;-79
2023/02/28 07:13:42;;;;;;;10.73;7.77;;;;;0.70;102467.00;;;;9860852;30;20766;-79
2023/02/28 07:18:45;;;;;;;15.63;8.73;;;;;1.00;102470.00;;;;9860561;30;20603;-79
2023/02/28 07:23:47;;;;;;;16.97;7.67;;;;;1.20;102473.00;;;;9874846;30;20188;-79
2023/02/28 07:28:49;;;;;;;10.00;6.93;;;;;1.20;102466.00;;;;9859507;29;20557;-79
2023/02/28 07:33:53;;;;;;;13.67;7.47;;;;;1.20;102473.00;;;;9889418;30;20238;-79
2023/02/28 07:38:55;;;;;;;10.07;6.30;;;;;1.40;102476.00;;;;9853597;30;20235;-79
2023/02/28 07:43:59;;;;;;;8.53;6.93;;;;;1.60;102482.00;;;;9878925;30;20700;-79
2023/02/28 07:49:02;;;;;;;12.23;6.50;;;;;1.80;102479.00;;;;9868237;30;20216;-79
2023/02/28 07:54:04;;;;;;;11.43;6.03;;;;;2.00;102477.00;;;;9856684;29;20208;-79
2023/02/28 07:59:06;;;;;;;9.73;6.37;;;;;2.20;102475.00;;;;9903326;30;20269;-80
2023/02/28 08:04:08;;;;;;;9.10;5.83;;;;;2.40;102479.00;;;;9872513;30;20239;-79
2023/02/28 08:09:11;;;;;;;11.73;6.13;;;;;2.90;102487.00;;;;9858782;29;20243;-79
2023/02/28 08:14:13;;;;;;;8.80;5.37;;;;;3.30;102480.00;;;;9887853;30;20242;-80
2023/02/28 08:19:15;;;;;;;7.10;5.20;;;;;3.60;102478.00;;;;9872975;30;20569;-79
2023/02/28 08:24:17;;;;;;;5.93;4.43;;;;;4.20;102487.00;;;;9857974;30;20216;-79
2023/02/28 08:29:19;;;;;;;6.10;4.43;;;;;4.40;102494.00;;;;9858009;30;20736;-79
2023/02/28 08:34:22;;;;;;;5.73;3.50;;;;;4.60;102488.00;;;;9872855;30;20744;-80
2023/02/28 08:39:24;;;;;;;4.83;3.57;;;;;4.70;102504.00;;;;9872058;30;20200;-79
2023/02/28 08:44:27;;;;;;;5.17;3.27;;;;;5.00;102490.00;;;;9856521;30;20200;-79
2023/02/28 08:49:29;;;;;;;4.63;2.87;;;;;5.20;102491.00;;;;9842912;30;20207;-80
2023/02/28 08:54:33;;;;;;;4.90;3.00;;;;;5.60;102497.00;;;;9905938;29;20215;-79
2023/02/28 08:59:35;;;;;;;5.00;3.00;;;;;5.70;102497.00;;;;9893258;30;20700;-79
2023/02/28 09:04:36;;;;;;;6.43;3.20;;;;;5.80;102493.00;;;;9871837;30;20571;-80
2023/02/28 09:09:53;;;;;;;7.40;4.00;;;;;5.90;102500.00;;;;9871343;29;20235;-79
2023/02/28 09:14:55;;;;;;;4.83;3.17;;;;;5.90;102492.00;;;;9886665;30;20227;-78
2023/02/28 09:19:57;;;;;;;4.63;2.70;;;;;5.90;102498.00;;;;9886382;30;20231;-78
2023/02/28 09:24:59;;;;;;;3.80;2.90;;;;;6.00;102480.00;;;;9885913;30;20256;-79
2023/02/28 09:30:01;;;;;;;2.80;2.53;;;;;6.20;102471.00;;;;9834655;30;20216;-78
2023/02/28 09:35:03;;;;;;;3.20;2.63;;;;;6.60;102470.00;;;;9820460;30;20250;-79
2023/02/28 09:40:05;;;;;;;3.67;2.73;;;;;6.90;102476.00;;;;9849279;30;20628;-80
2023/02/28 09:45:24;;;;;;;5.17;3.13;;;;;7.10;102473.00;;;;9820169;30;20316;-79
2023/02/28 09:50:26;;;;;;;2.93;2.33;;;;;7.40;102478.00;;;;9849679;30;20212;-79
2023/02/28 09:55:42;;;;;;;4.20;2.20;;;;;7.50;102484.00;;;;9890433;29;20276;-79
2023/02/28 10:00:57;;;;;;;4.53;2.47;;;;;7.40;102471.00;;;;9826311;30;20196;-79
2023/02/28 10:06:16;;;;;;;4.67;2.53;;;;;7.50;102475.00;;;;9840777;30;20193;-79
2023/02/28 10:11:20;;;;;;;4.03;2.70;;;;;7.60;102464.00;;;;9856921;30;20826;-79
2023/02/28 10:16:30;;;;;;;3.93;1.97;;;;;7.70;102462.00;;;;9862402;30;20203;-79
2023/02/28 10:21:42;;;;;;;3.67;1.90;;;;;7.70;102461.00;;;;9897206;29;20709;-78
2023/02/28 10:26:47;;;;;;;2.10;1.90;;;;;7.80;102459.00;;;;9882658;29;20682;-79
2023/02/28 10:31:49;;;;;;;3.87;1.97;;;;;8.00;102459.00;;;;9891556;30;20230;-78
2023/02/28 10:36:51;;;;;;;2.23;1.50;;;;;8.20;102449.00;;;;9882589;29;20215;-79
2023/02/28 10:41:53;;;;;;;4.63;2.07;;;;;8.60;102441.00;;;;9906603;30;20220;-79
2023/02/28 10:46:56;;;;;;;2.50;1.90;;;;;8.90;102451.00;;;;9891319;30;20209;-79
2023/02/28 10:52:00;;;;;;;2.27;1.70;;;;;9.00;102443.00;;;;9875140;29;20212;-79
2023/02/28 10:57:28;;;;;;;2.07;1.50;;;;;9.00;102434.00;;;;9930564;29;20240;-79
2023/02/28 11:02:42;;;;;;;2.27;1.63;;;;;8.90;102443.00;;;;9866160;30;20272;-79
2023/02/28 11:07:52;;;;;;;1.83;1.67;;;;;8.80;102429.00;;;;9899179;29;20228;-79
2023/02/28 11:12:56;;;;;;;4.37;2.20;;;;;8.50;102441.00;;;;9853037;30;20213;-79
2023/02/28 11:18:12;;;;;;;2.47;1.83;;;;;8.90;102432.00;;;;9824431;30;20192;-78
2023/02/28 11:23:16;;;;;;;1.93;1.77;;;;;9.10;102427.00;;;;9852972;30;20201;-79
2023/02/28 11:28:32;;;;;;;1.90;1.70;;;;;9.10;102422.00;;;;9860025;30;20207;-80
2023/02/28 11:33:50;;;;;;;2.63;1.97;;;;;9.30;102418.00;;;;9845923;30;20248;-78
2023/02/28 11:39:02;;;;;;;2.57;1.93;;;;;9.40;102424.00;;;;9867554;30;20250;-80
2023/02/28 11:44:42;;;;;;;4.17;1.97;;;;;9.50;102405.00;;;;9837325;30;20200;-79
2023/02/28 11:49:59;;;;;;;1.90;1.57;;;;;9.80;102409.00;;;;9806019;30;20576;-79
2023/02/28 11:55:17;;;;;;;3.00;2.20;;;;;9.70;102399.00;;;;9912532;29;20214;-79
2023/02/28 12:00:37;;;;;;;2.73;2.47;;;;;9.70;102389.00;;;;9875090;30;20209;-80
2023/02/28 12:05:49;;;;;;;2.43;1.77;;;;;9.50;102388.00;;;;9873692;30;20195;-76
2023/02/28 12:11:01;;;;;;;2.77;1.90;;;;;9.00;102407.00;;;;9887210;30;20235;-79
2023/02/28 12:16:33;;;;;;;3.53;1.90;;;;;8.80;102394.00;;;;9858154;29;20196;-79
2023/02/28 12:22:05;;;;;;;2.53;1.90;;;;;7.50;102369.00;;;;9843410;30;20235;-79
2023/02/28 12:27:12;;;;;;;2.17;1.97;;;;;8.70;102364.00;;;;9874636;30;20211;-79
2023/02/28 12:32:24;;;;;;;2.07;1.80;;;;;9.70;102338.00;;;;9820290;30;20673;-79
2023/02/28 12:37:39;;;;;;;2.30;1.97;;;;;9.80;102346.00;;;;9821142;30;20620;-79
2023/02/28 12:42:50;;;;;;;1.90;1.60;;;;;9.90;102342.00;;;;9849699;30;20202;-79
2023/02/28 12:48:04;;;;;;;3.17;1.90;;;;;9.80;102348.00;;;;9847769;30;20218;-79
2023/02/28 12:53:30;;;;;;;5.10;2.07;;;;;9.90;102337.00;;;;9914684;29;20311;-79
2023/02/28 12:58:54;;;;;;;2.43;1.80;;;;;9.80;102332.00;;;;9856558;30;20210;-79
2023/02/28 13:04:14;;;;;;;1.73;1.63;;;;;9.60;102329.00;;;;9870905;30;20203;-80
2023/02/28 13:09:17;;;;;;;2.37;1.93;;;;;9.80;102329.00;;;;9901742;29;20798;-79
2023/02/28 13:14:35;;;;;;;3.23;2.30;;;;;10.00;102325.00;;;;9856408;30;20284;-79
2023/02/28 13:19:37;;;;;;;2.43;1.80;;;;;9.90;102329.00;;;;9838434;30;20216;-79
2023/02/28 13:24:44;;;;;;;2.07;1.87;;;;;9.60;102326.00;;;;9819957;30;20271;-79
2023/02/28 13:29:48;;;;;;;4.20;1.97;;;;;9.50;102317.00;;;;9900292;29;20672;-79
2023/02/28 13:34:49;;;;;;;3.77;2.30;;;;;9.40;102320.00;;;;9877747;30;20218;-80
2023/02/28 13:39:55;;;;;;;3.63;2.10;;;;;9.30;102325.00;;;;9841365;30;20203;-79
2023/02/28 13:45:03;;;;;;;2.20;2.00;;;;;9.60;102314.00;;;;9856570;30;20250;-79
2023/02/28 13:50:28;;;;;;;2.63;2.10;;;;;9.60;102317.00;;;;9856436;30;20617;-80
2023/02/28 13:55:33;;;;;;;2.77;2.13;;;;;9.90;102301.00;;;;9893828;29;20678;-79
2023/02/28 14:00:41;;;;;;;2.53;1.73;;;;;10.00;102311.00;;;;9842236;30;20205;-80
2023/02/28 14:05:43;;;;;;;3.83;1.90;;;;;10.40;102316.00;;;;9827834;30;20193;-79
2023/02/28 14:10:48;;;;;;;2.50;2.30;;;;;11.20;102293.00;;;;9860701;29;20763;-81
2023/02/28 14:15:56;;;;;;;2.40;2.13;;;;;11.80;102277.00;;;;9873939;29;20277;-79
2023/02/28 14:21:02;;;;;;;3.93;2.30;;;;;12.30;102275.00;;;;9894139;29;20263;-79
2023/02/28 14:26:14;;;;;;;2.60;2.40;;;;;12.70;102269.00;;;;9877382;29;20222;-79
2023/02/28 14:31:25;;;;;;;2.37;2.17;;;;;11.60;102289.00;;;;9874732;29;20241;-79
2023/02/28 14:36:36;;;;;;;5.97;2.03;;;;;10.80;102271.00;;;;9874533;29;20599;-79
2023/02/28 14:41:40;;;;;;;2.60;2.20;;;;;10.90;102260.00;;;;9870130;29;20195;-79
2023/02/28 14:46:44;;;;;;;2.73;2.47;;;;;12.20;102246.00;;;;9870516;29;20668;-79
2023/02/28 14:51:49;;;;;;;2.97;2.37;;;;;11.20;102272.00;;;;9880024;29;20293;-79
2023/02/28 14:56:51;;;;;;;3.90;3.20;;;;;12.70;102211.00;;;;9912214;29;20226;-78
2023/02/28 15:02:14;;;;;;;3.93;2.70;;;;;13.50;102237.00;;;;9872010;29;20199;-78
2023/02/28 15:07:17;;;;;;;3.87;2.60;;;;;12.20;102246.00;;;;9892118;29;20226;-79
2023/02/28 15:12:19;;;;;;;3.37;2.60;;;;;12.30;102240.00;;;;9897148;29;20227;-79
2023/02/28 15:17:24;;;;;;;4.20;2.30;;;;;13.40;102231.00;;;;9877332;29;20211;-79
2023/02/28 15:22:37;;;;;;;4.87;3.00;;;;;11.30;102250.00;;;;9863479;29;20201;-79
2023/02/28 15:27:46;;;;;;;2.87;2.67;;;;;10.30;102233.00;;;;9880889;29;20256;-78
2023/02/28 15:33:16;;;;;;;4.63;2.90;;;;;12.10;102242.00;;;;9874652;29;20216;-79
2023/02/28 15:38:26;;;;;;;3.37;2.67;;;;;12.70;102283.00;;;;9880676;29;20695;-80
2023/02/28 15:43:31;;;;;;;3.00;2.37;;;;;8.30;102298.00;;;;9874334;29;20196;-79
2023/02/28 15:48:43;;;;;;;4.53;2.37;;;;;6.90;102299.00;;;;9861884;29;20640;-78
2023/02/28 15:53:53;;;;;;;3.23;2.40;;;;;6.30;102294.00;;;;9892673;29;20220;-78
2023/02/28 15:58:57;;;;;;;3.00;2.70;;;;;6.00;102300.00;;;;9863538;29;20202;-77
2023/02/28 16:04:02;;;;;;;2.90;2.57;;;;;5.90;102293.00;;;;9852853;29;20195;-79
2023/02/28 16:09:08;;;;;;;3.83;2.67;;;;;5.60;102306.00;;;;9892968;29;20223;-79
2023/02/28 16:14:38;;;;;;;4.20;2.27;;;;;5.20;102291.00;;;;9881155;29;20680;-80
2023/02/28 16:19:40;;;;;;;5.77;2.67;;;;;5.00;102304.00;;;;9861662;29;20208;-80
2023/02/28 16:24:42;;;;;;;2.93;2.37;;;;;4.90;102295.00;;;;9859109;29;20196;-79
2023/02/28 16:29:45;;;;;;;3.33;2.97;;;;;4.70;102300.00;;;;9873072;29;20727;-78
2023/02/28 16:34:47;;;;;;;3.13;2.60;;;;;4.60;102300.00;;;;9863237;29;20211;-79
2023/02/28 16:39:50;;;;;;;3.53;2.60;;;;;4.50;102306.00;;;;9860633;29;20293;-78
2023/02/28 16:44:53;;;;;;;3.30;2.70;;;;;4.40;102316.00;;;;9857974;29;20200;-79
2023/02/28 16:49:56;;;;;;;3.80;2.37;;;;;4.30;102309.00;;;;9865092;29;20933;-78
2023/02/28 16:54:59;;;;;;;3.03;2.70;;;;;4.10;102324.00;;;;9902428;29;20458;-78
2023/02/28 17:00:04;;;;;;;4.07;2.57;;;;;3.90;102323.00;;;;9853358;30;20273;-79
2023/02/28 17:05:06;;;;;;;2.73;2.30;;;;;3.80;102320.00;;;;9834701;30;20227;-79
2023/02/28 17:10:28;;;;;;;3.07;2.60;;;;;3.60;102325.00;;;;9879742;29;20227;-78
2023/02/28 17:15:31;;;;;;;2.83;2.53;;;;;3.40;102326.00;;;;9911787;29;20223;-79
2023/02/28 17:20:33;;;;;;;4.30;2.97;;;;;3.20;102323.00;;;;9909822;29;20207;-79
2023/02/28 17:25:36;;;;;;;3.87;3.00;;;;;3.00;102344.00;;;;9910146;29;20195;-78
2023/02/28 17:30:40;;;;;;;3.53;3.23;;;;;2.90;102347.00;;;;9910447;29;20203;-78
2023/02/28 17:35:42;;;;;;;3.73;2.50;;;;;2.70;102365.00;;;;9895360;29;20302;-78
2023/02/28 17:40:44;;;;;;;5.60;3.30;;;;;2.50;102362.00;;;;9895380;29;20302;-78
2023/02/28 17:45:46;;;;;;;5.07;3.33;;;;;2.40;102365.00;;;;9876190;30;20203;-78
2023/02/28 17:50:48;;;;;;;5.57;3.77;;;;;2.30;102374.00;;;;9887309;29;20207;-78
2023/02/28 17:55:50;;;;;;;6.87;4.63;;;;;2.10;102370.00;;;;9924542;29;20288;-78
2023/02/28 18:00:54;;;;;;;6.50;4.30;;;;;2.00;102381.00;;;;9909610;29;20284;-79
2023/02/28 18:05:56;;;;;;;7.30;4.80;;;;;1.90;102381.00;;;;9924580;29;20270;-78
2023/02/28 18:10:58;;;;;;;10.73;5.17;;;;;1.70;102386.00;;;;9884860;29;20279;-78
2023/02/28 18:16:00;;;;;;;8.57;5.20;;;;;1.60;102381.00;;;;9913492;29;20222;-79
2023/02/28 18:21:04;;;;;;;7.87;4.40;;;;;1.40;102384.00;;;;9931203;29;20192;-79
2023/02/28 18:26:07;;;;;;;7.13;5.60;;;;;1.20;102392.00;;;;9916081;29;20199;-79
2023/02/28 18:31:12;;;;;;;11.00;5.23;;;;;1.10;102391.00;;;;9915573;29;20195;-79
2023/02/28 18:36:15;;;;;;;8.60;5.40;;;;;0.90;102398.00;;;;9900917;29;20222;-78
2023/02/28 18:41:21;;;;;;;9.73;5.67;;;;;0.90;102397.00;;;;9900605;29;20310;-79
2023/02/28 18:46:24;;;;;;;6.60;5.20;;;;;1.00;102395.00;;;;9893258;30;20668;-78
2023/02/28 18:51:27;;;;;;;16.47;10.57;;;;;1.00;102400.00;;;;9891570;30;20217;-79
2023/02/28 18:56:29;;;;;;;7.87;6.10;;;;;0.80;102394.00;;;;9886145;29;20224;-79
2023/02/28 19:01:32;;;;;;;18.70;11.20;;;;;0.70;102401.00;;;;9877760;30;20257;-79
2023/02/28 19:06:36;;;;;;;9.10;4.97;;;;;0.60;102393.00;;;;9881041;29;20210;-78
2023/02/28 19:11:39;;;;;;;14.93;5.63;;;;;0.50;102398.00;;;;9900161;29;20207;-79
2023/02/28 19:16:41;;;;;;;9.77;6.57;;;;;0.50;102401.00;;;;9914245;29;20249;-79
2023/02/28 19:21:43;;;;;;;9.00;6.27;;;;;0.40;102387.00;;;;9893811;29;20228;-79
2023/02/28 19:26:44;;;;;;;10.00;4.87;;;;;0.30;102384.00;;;;9909500;29;20210;-79
2023/02/28 19:31:46;;;;;;;9.00;5.60;;;;;0.20;102386.00;;;;9898467;29;20742;-78
2023/02/28 19:36:49;;;;;;;13.23;6.53;;;;;0.10;102389.00;;;;9913583;29;20222;-78
2023/02/28 19:41:51;;;;;;;8.73;6.23;;;;;0.10;102409.00;;;;9913142;29;20267;-79
2023/02/28 19:46:53;;;;;;;10.23;6.53;;;;;0.10;102406.00;;;;9899031;29;20256;-79
2023/02/28 19:51:55;;;;;;;9.10;5.93;;;;;0.20;102415.00;;;;9898008;29;20806;-79
2023/02/28 19:56:57;;;;;;;11.37;5.77;;;;;0.30;102422.00;;;;9938343;29;20679;-79
2023/02/28 20:01:59;;;;;;;11.17;6.80;;;;;0.30;102422.00;;;;9898174;29;20244;-79
2023/02/28 20:07:01;;;;;;;12.43;7.43;;;;;0.20;102419.00;;;;9897789;29;20279;-79
2023/02/28 20:12:03;;;;;;;8.87;6.70;;;;;0.20;102427.00;;;;9875162;30;20211;-79
2023/02/28 20:17:10;;;;;;;9.73;6.13;;;;;0.10;102429.00;;;;9890109;30;20294;-79
2023/02/28 20:22:12;;;;;;;10.33;6.17;;;;;0.10;102430.00;;;;9889959;30;20188;-79
2023/02/28 20:27:14;;;;;;;8.10;5.50;;;;;0.10;102426.00;;;;9902835;29;20210;-78
2023/02/28 20:32:16;;;;;;;11.10;6.60;;;;;0.10;102431.00;;;;9896580;29;20202;-79
2023/02/28 20:37:18;;;;;;;11.87;6.90;;;;;0.10;102422.00;;;;9910906;29;20207;-78
2023/02/28 20:42:20;;;;;;;12.33;6.60;;;;;0.00;102421.00;;;;9926083;29;20195;-80
2023/02/28 20:47:22;;;;;;;13.27;7.43;;;;;0.00;102416.00;;;;9910897;29;20217;-78
2023/02/28 20:52:24;;;;;;;14.10;8.33;;;;;-0.10;102406.00;;;;9899499;29;20210;-79
2023/02/28 20:57:28;;;;;;;10.73;7.20;;;;;-0.20;102422.00;;;;9923525;29;20230;-79
2023/02/28 21:02:30;;;;;;;10.93;6.20;;;;;-0.30;102415.00;;;;9901815;29;20322;-78
2023/02/28 21:07:32;;;;;;;10.83;7.43;;;;;-0.50;102412.00;;;;9871330;29;20239;-79
2023/02/28 21:12:34;;;;;;;13.60;10.23;;;;;-0.60;102427.00;;;;9869642;30;20227;-78
2023/02/28 21:17:36;;;;;;;16.00;10.00;;;;;-0.60;102422.00;;;;9874159;30;20207;-78
2023/02/28 21:22:37;;;;;;;15.73;9.53;;;;;-0.80;102422.00;;;;9874010;30;20233;-78
2023/02/28 21:27:40;;;;;;;14.63;9.10;;;;;-0.90;102432.00;;;;9858780;30;20235;-79
2023/02/28 21:32:42;;;;;;;16.07;8.43;;;;;-1.00;102421.00;;;;9876399;29;20218;-77
2023/02/28 21:37:44;;;;;;;14.00;8.90;;;;;-1.10;102418.00;;;;9863240;29;20204;-77
2023/02/28 21:42:47;;;;;;;21.40;9.30;;;;;-1.20;102419.00;;;;9846741;29;20235;-77
2023/02/28 21:47:49;;;;;;;15.03;9.50;;;;;-1.30;102410.00;;;;9836475;30;20612;-78
2023/02/28 21:52:51;;;;;;;18.77;8.90;;;;;-1.40;102409.00;;;;9894622;29;20211;-78
2023/02/28 21:57:52;;;;;;;19.30;10.23;;;;;-1.40;102412.00;;;;9890568;30;20210;-78
2023/02/28 22:02:54;;;;;;;24.07;11.33;;;;;-1.50;102407.00;;;;9879669;30;20206;-78
2023/02/28 22:07:56;;;;;;;32.63;13.97;;;;;-1.50;102416.00;;;;9869736;29;20227;-79
2023/02/28 22:13:00;;;;;;;15.27;8.43;;;;;-1.50;102420.00;;;;9842213;30;20228;-78
2023/02/28 22:18:02;;;;;;;12.60;8.23;;;;;-1.40;102421.00;;;;9856673;30;20278;-77
2023/02/28 22:23:04;;;;;;;13.33;7.90;;;;;-1.50;102419.00;;;;9864791;30;20191;-77
2023/02/28 22:28:06;;;;;;;11.57;7.60;;;;;-1.50;102431.00;;;;9864660;30;20290;-78
2023/02/28 22:33:08;;;;;;;12.10;6.53;;;;;-1.50;102421.00;;;;9843867;30;20320;-78
2023/02/28 22:38:10;;;;;;;9.80;6.63;;;;;-1.60;102422.00;;;;9830185;30;20895;-78
2023/02/28 22:43:12;;;;;;;10.63;7.20;;;;;-1.60;102416.00;;;;9869585;29;20207;-78
2023/02/28 22:48:14;;;;;;;10.87;6.67;;;;;-1.60;102429.00;;;;9870436;30;20301;-78
2023/02/28 22:53:16;;;;;;;12.80;6.67;;;;;-1.60;102420.00;;;;9858926;29;20277;-78
2023/02/28 22:58:19;;;;;;;10.93;7.20;;;;;-1.70;102408.00;;;;9850759;30;20675;-78
2023/02/28 23:03:23;;;;;;;10.27;6.57;;;;;-1.70;102415.00;;;;9886059;30;20220;-77
2023/02/28 23:08:25;;;;;;;10.27;6.47;;;;;-1.80;102415.00;;;;9846524;30;20919;-77
2023/02/28 23:13:26;;;;;;;14.10;7.20;;;;;-1.80;102425.00;;;;9855379;30;20612;-78
2023/02/28 23:18:29;;;;;;;9.50;6.90;;;;;-1.90;102429.00;;;;9825241;30;20200;-77
2023/02/28 23:23:30;;;;;;;13.43;6.73;;;;;-1.90;102443.00;;;;9839279;30;20204;-78
2023/02/28 23:28:33;;;;;;;16.73;7.67;;;;;-1.90;102436.00;;;;9862217;30;20207;-79
2023/02/28 23:33:35;;;;;;;9.90;6.80;;;;;-2.00;102434.00;;;;9862217;30;20250;-77
2023/02/28 23:38:38;;;;;;;11.93;6.93;;;;;-2.00;102440.00;;;;9876583;30;20256;-78
2023/02/28 23:43:40;;;;;;;10.77;6.73;;;;;-1.90;102442.00;;;;9861587;30;20255;-78
2023/02/28 23:48:42;;;;;;;10.23;6.63;;;;;-1.80;102431.00;;;;9876742;30;20260;-77
2023/02/28 23:53:46;;;;;;;12.00;7.13;;;;;-1.70;102443.00;;;;9846828;29;20340;-78
2023/02/28 23:58:49;;;;;;;13.27;6.17;;;;;-1.80;102437.00;;;;9855573;30;20200;-78
